Time;durP1;ratioP1;P1;durP2;ratioP2;P2;SDS_P1;SDS_P2;PMS_P1;PMS_P2;Temp;Humidity;BMP_temperature;BMP_pressure;BME280_temperature;BME280_humidity;BME280_pressure;Samples;Min_cycle;Max_cycle;Signal;HPM_P1;HPM_P2
2023/05/27 00:00:08;;;;;;;8.30;2.83;;;;;;;9.55;100.00;103284.91;5096398;28;20800;-68
2023/05/27 00:02:34;;;;;;;11.80;3.30;;;;;;;9.53;100.00;103307.44;5093560;28;20460;-68
2023/05/27 00:04:59;;;;;;;9.03;3.53;;;;;;;9.41;100.00;103285.25;5095909;28;20428;-68
2023/05/27 00:07:25;;;;;;;9.37;3.10;;;;;;;9.50;100.00;103277.25;5098478;28;20178;-68
2023/05/27 00:09:51;;;;;;;7.13;2.83;;;;;;;9.66;100.00;103303.59;5100310;28;20202;-68
2023/05/27 00:12:16;;;;;;;12.33;3.63;;;;;;;8.94;100.00;103212.47;5099501;28;20236;-67
2023/05/27 00:14:42;;;;;;;7.67;2.87;;;;;;;8.94;100.00;103221.38;5082607;28;20193;-68
2023/05/27 00:17:14;;;;;;;10.33;3.17;;;;;;;9.60;100.00;103306.75;5081580;28;20203;-68
2023/05/27 00:19:44;;;;;;;11.10;3.53;;;;;;;9.55;100.00;103305.50;5082825;28;20456;-68
2023/05/27 00:22:10;;;;;;;8.90;3.17;;;;;;;9.01;100.00;103190.41;5082945;28;20427;-68
2023/05/27 00:24:38;;;;;;;10.77;3.10;;;;;;;9.24;100.00;103259.88;5079246;28;20434;-68
2023/05/27 00:27:07;;;;;;;11.03;3.67;;;;;;;9.56;100.00;103291.09;5081923;28;20435;-68
2023/05/27 00:29:33;;;;;;;8.30;3.20;;;;;;;9.58;100.00;103306.06;5090746;28;20462;-68
2023/05/27 00:32:03;;;;;;;13.97;3.60;;;;;;;8.83;100.00;103192.81;5097918;28;20466;-68
2023/05/27 00:34:29;;;;;;;18.53;3.37;;;;;;;9.55;100.00;103303.66;5077023;28;20862;-68
2023/05/27 00:36:55;;;;;;;10.27;3.23;;;;;;;8.88;100.00;103210.31;5093929;28;20444;-68
2023/05/27 00:39:21;;;;;;;9.47;2.70;;;;;;;9.31;100.00;103277.13;5079353;28;20460;-67
2023/05/27 00:41:49;;;;;;;9.20;2.90;;;;;;;9.25;100.00;103307.94;5071207;28;20434;-68
2023/05/27 00:44:15;;;;;;;9.93;3.10;;;;;;;8.72;100.00;103198.22;5073368;28;20186;-68
2023/05/27 00:46:40;;;;;;;16.10;3.93;;;;;;;9.17;100.00;103275.63;5100146;28;20510;-68
2023/05/27 00:49:06;;;;;;;7.80;3.10;;;;;;;8.67;100.00;103179.03;5100475;28;20559;-68
2023/05/27 00:51:31;;;;;;;8.10;3.10;;;;;;;9.00;100.00;103209.28;5096649;28;20277;-68
2023/05/27 00:53:57;;;;;;;6.57;2.83;;;;;;;9.58;100.00;103300.72;5081029;28;20180;-68
2023/05/27 00:56:22;;;;;;;12.77;3.50;;;;;;;9.18;100.00;103223.78;5080365;28;20178;-68
2023/05/27 00:58:48;;;;;;;9.00;3.90;;;;;;;8.85;100.00;103192.66;5099539;28;20573;-68
2023/05/27 01:01:13;;;;;;;7.73;3.30;;;;;;;8.84;100.00;103220.44;5097987;28;20233;-68
2023/05/27 01:03:41;;;;;;;12.07;3.43;;;;;;;8.75;100.00;103203.31;5098087;28;20204;-68
2023/05/27 01:06:07;;;;;;;9.43;3.00;;;;;;;9.39;100.00;103309.47;5080406;28;20277;-68
2023/05/27 01:08:50;;;;;;;10.47;3.33;;;;;;;8.83;100.00;103249.03;5080024;28;20581;-68
2023/05/27 01:11:21;;;;;;;7.23;2.67;;;;;;;8.70;100.00;103202.00;5096414;28;20247;-68
2023/05/27 01:13:52;;;;;;;9.80;3.50;;;;;;;9.00;100.00;103233.38;5081003;28;20507;-68
2023/05/27 01:16:18;;;;;;;10.23;3.50;;;;;;;9.32;100.00;103308.28;5096188;28;20422;-68
2023/05/27 01:18:46;;;;;;;9.30;3.20;;;;;;;9.51;100.00;103323.63;5099757;28;20440;-68
2023/05/27 01:21:14;;;;;;;9.93;3.63;;;;;;;8.88;100.00;103221.88;5097233;28;20454;-67
2023/05/27 01:23:44;;;;;;;12.80;3.47;;;;;;;9.19;100.00;103248.72;5098834;28;20454;-68
2023/05/27 01:26:10;;;;;;;8.57;3.23;;;;;;;9.85;100.00;103316.22;5077678;28;20528;-67
2023/05/27 01:28:35;;;;;;;9.50;3.70;;;;;;;8.90;100.00;103181.59;5101377;28;20529;-68
2023/05/27 01:31:11;;;;;;;10.40;3.40;;;;;;;9.06;100.00;103214.13;5090062;28;20197;-68
2023/05/27 01:33:40;;;;;;;10.70;3.63;;;;;;;9.12;100.00;103196.69;5078426;28;20185;-67
2023/05/27 01:36:13;;;;;;;14.03;3.80;;;;;;;9.74;100.00;103292.19;5079199;28;20411;-68
2023/05/27 01:38:42;;;;;;;19.73;4.27;;;;;;;9.85;100.00;103310.03;5094040;28;20451;-67
2023/05/27 01:41:09;;;;;;;14.33;3.57;;;;;;;9.83;100.00;103280.66;5091028;28;20488;-68
2023/05/27 01:43:35;;;;;;;11.73;3.03;;;;;;;8.94;100.00;103186.56;5074948;28;20453;-68
2023/05/27 01:46:00;;;;;;;10.90;4.13;;;;;;;9.22;100.00;103177.00;5071419;28;20435;-68
2023/05/27 01:48:26;;;;;;;8.87;3.13;;;;;;;9.81;100.00;103279.97;5096015;28;20464;-67
2023/05/27 01:50:51;;;;;;;10.53;3.50;;;;;;;9.64;100.00;103291.28;5092071;28;20202;-68
2023/05/27 01:53:17;;;;;;;13.50;3.70;;;;;;;9.63;100.00;103284.22;5091671;28;20236;-68
2023/05/27 01:55:42;;;;;;;7.67;3.13;;;;;;;9.43;100.00;103251.09;5091282;28;20209;-67
2023/05/27 01:58:08;;;;;;;9.23;3.40;;;;;;;9.43;100.00;103286.81;5095350;28;20202;-68
2023/05/27 02:00:34;;;;;;;13.60;4.50;;;;;;;9.24;100.00;103242.00;5069310;28;20770;-67
2023/05/27 02:02:59;;;;;;;10.73;3.57;;;;;;;9.61;100.00;103289.72;5091220;28;20259;-67
2023/05/27 02:05:24;;;;;;;9.80;3.60;;;;;;;8.93;100.00;103192.88;5074478;28;20441;-68
2023/05/27 02:07:50;;;;;;;10.20;4.17;;;;;;;8.77;100.00;103168.41;5094138;28;20182;-68
2023/05/27 02:10:15;;;;;;;11.13;4.00;;;;;;;9.30;100.00;103263.88;5086860;28;20196;-68
2023/05/27 02:12:41;;;;;;;8.57;3.13;;;;;;;9.01;100.00;103221.69;5092252;28;20191;-68
2023/05/27 02:15:07;;;;;;;8.47;3.10;;;;;;;8.25;100.00;103109.41;5079178;28;20187;-67
2023/05/27 02:17:32;;;;;;;10.97;4.03;;;;;;;8.68;100.00;103178.06;5093451;28;20178;-68
2023/05/27 02:19:58;;;;;;;8.77;3.10;;;;;;;9.35;100.00;103273.22;5090770;28;20470;-68
2023/05/27 02:22:23;;;;;;;11.43;3.13;;;;;;;8.90;100.00;103219.91;5073514;28;20186;-68
2023/05/27 02:24:49;;;;;;;10.67;3.60;;;;;;;8.49;100.00;103173.41;5088247;28;20182;-68
2023/05/27 02:27:14;;;;;;;8.83;3.40;;;;;;;8.20;100.00;103118.78;5091563;28;20182;-68
2023/05/27 02:29:40;;;;;;;7.87;3.33;;;;;;;9.14;100.00;103288.41;5095846;28;20292;-68
2023/05/27 02:32:06;;;;;;;12.27;3.83;;;;;;;9.15;100.00;103266.88;5095135;28;20292;-67
2023/05/27 02:34:36;;;;;;;6.67;2.70;;;;;;;8.96;100.00;103256.00;5072930;28;20213;-68
2023/05/27 02:37:02;;;;;;;11.87;3.30;;;;;;;8.71;100.00;103220.63;5081960;28;20269;-68
2023/05/27 02:39:27;;;;;;;7.40;3.67;;;;;;;8.59;100.00;103195.75;5078781;28;20452;-67
2023/05/27 02:41:53;;;;;;;8.10;3.00;;;;;;;9.23;100.00;103301.91;5096235;28;20851;-68
2023/05/27 02:44:18;;;;;;;10.53;3.40;;;;;;;9.14;100.00;103291.09;5073010;28;20175;-67
2023/05/27 02:46:44;;;;;;;18.27;4.00;;;;;;;9.23;100.00;103285.81;5075607;28;20186;-67
2023/05/27 02:49:09;;;;;;;10.43;4.10;;;;;;;8.65;100.00;103182.81;5101735;28;20206;-67
2023/05/27 02:51:36;;;;;;;9.70;3.13;;;;;;;8.73;100.00;103191.88;5090147;28;20245;-68
2023/05/27 02:54:01;;;;;;;8.53;3.83;;;;;;;8.67;100.00;103205.78;5096533;28;20198;-68
2023/05/27 02:56:27;;;;;;;12.13;3.20;;;;;;;9.09;100.00;103278.09;5079569;28;20436;-67
2023/05/27 02:58:53;;;;;;;8.00;3.27;;;;;;;8.47;100.00;103191.38;5078771;28;20218;-67
2023/05/27 03:01:18;;;;;;;7.93;2.97;;;;;;;8.83;100.00;103282.97;5093031;28;20480;-67
2023/05/27 03:03:44;;;;;;;6.33;2.53;;;;;;;7.95;100.00;103126.16;5102185;22;20291;-78
2023/05/27 03:06:09;;;;;;;8.90;3.27;;;;;;;7.51;100.00;103030.94;5079793;28;20272;-78
2023/05/27 03:08:35;;;;;;;6.90;2.83;;;;;;;6.75;100.00;102942.75;5081284;28;20174;-78
2023/05/27 03:11:01;;;;;;;6.80;2.87;;;;;;;7.20;100.00;103012.94;5082952;28;20198;-78
2023/05/27 03:13:26;;;;;;;7.83;3.07;;;;;;;7.23;100.00;103015.34;5095724;28;20448;-78
2023/05/27 03:15:54;;;;;;;7.63;3.60;;;;;;;6.71;100.00;102894.13;5063194;28;20277;-78
2023/05/27 03:18:20;;;;;;;7.13;3.00;;;;;;;8.27;100.00;103171.59;5063636;28;20194;-79
2023/05/27 03:20:45;;;;;;;11.10;3.50;;;;;;;6.93;100.00;102941.25;5081328;28;20416;-78
2023/05/27 03:23:10;;;;;;;9.57;3.23;;;;;;;6.45;100.00;102866.91;5082216;28;20210;-78
2023/05/27 03:25:36;;;;;;;8.70;3.00;;;;;;;6.96;100.00;102975.69;5061951;28;20179;-77
2023/05/27 03:28:01;;;;;;;8.63;3.60;;;;;;;7.63;100.00;103067.31;5082054;28;20214;-78
2023/05/27 03:30:27;;;;;;;11.50;3.30;;;;;;;6.66;100.00;102895.47;5082010;28;20633;-78
2023/05/27 03:32:52;;;;;;;8.17;3.23;;;;;;;8.25;100.00;103186.09;5080701;28;20235;-78
2023/05/27 03:35:18;;;;;;;9.37;4.00;;;;;;;8.01;100.00;103130.13;5077355;28;20208;-77
2023/05/27 03:37:43;;;;;;;11.67;4.23;;;;;;;7.11;100.00;103002.13;5082195;28;20194;-78
2023/05/27 03:40:09;;;;;;;11.37;3.60;;;;;;;7.87;100.00;103126.78;5081086;28;20182;-78
2023/05/27 03:42:35;;;;;;;9.83;3.83;;;;;;;8.79;100.00;103277.03;5079031;28;20193;-78
2023/05/27 03:45:01;;;;;;;11.07;3.80;;;;;;;7.32;100.00;103076.97;5079414;28;20449;-78
2023/05/27 03:47:26;;;;;;;12.80;3.90;;;;;;;6.52;100.00;102861.91;5080906;28;20210;-78
2023/05/27 03:49:52;;;;;;;11.50;3.37;;;;;;;6.44;100.00;102851.84;5079973;28;20809;-78
2023/05/27 03:52:17;;;;;;;7.60;3.13;;;;;;;7.36;100.00;103020.53;5079654;28;20677;-78
2023/05/27 03:54:43;;;;;;;8.07;3.40;;;;;;;6.82;100.00;102914.59;5080503;28;20198;-78
2023/05/27 03:57:08;;;;;;;7.83;3.40;;;;;;;6.87;100.00;102916.91;5077797;28;20186;-77
2023/05/27 03:59:35;;;;;;;9.40;3.70;;;;;;;8.24;100.00;103179.03;5073622;28;20244;-77
2023/05/27 04:02:01;;;;;;;10.30;3.53;;;;;;;7.21;100.00;102989.75;5079812;28;20179;-77
2023/05/27 04:04:27;;;;;;;10.60;3.37;;;;;;;6.83;100.00;102915.44;5062161;28;20481;-77
2023/05/27 04:06:55;;;;;;;10.20;3.40;;;;;;;7.91;100.00;103093.47;5080290;28;20179;-78
2023/05/27 04:09:20;;;;;;;10.40;3.13;;;;;;;8.18;100.00;103164.34;5077378;28;20707;-78
2023/05/27 04:11:46;;;;;;;11.50;3.30;;;;;;;6.60;100.00;102891.47;5073925;28;20465;-78
2023/05/27 04:14:12;;;;;;;10.30;3.20;;;;;;;8.12;100.00;103080.16;5075592;28;20233;-78
2023/05/27 04:16:37;;;;;;;8.40;3.17;;;;;;;7.30;100.00;102943.63;5058747;28;20256;-78
2023/05/27 04:19:03;;;;;;;10.70;3.40;;;;;;;7.10;100.00;102939.06;5055116;28;20217;-78
2023/05/27 04:21:29;;;;;;;13.20;4.10;;;;;;;7.31;100.00;102965.81;5070320;28;20448;-77
2023/05/27 04:23:55;;;;;;;8.60;3.83;;;;;;;7.05;100.00;102888.72;5075300;28;20211;-78
2023/05/27 04:26:20;;;;;;;9.23;3.10;;;;;;;8.16;100.00;103107.50;5058572;28;20183;-77
2023/05/27 04:28:46;;;;;;;13.17;3.17;;;;;;;8.77;100.00;103217.44;5051119;28;20554;-77
2023/05/27 04:31:12;;;;;;;14.67;3.77;;;;;;;8.81;100.00;103194.75;5076236;28;20587;-77
2023/05/27 04:33:42;;;;;;;7.30;3.20;;;;;;;9.59;100.00;103297.03;5050077;28;20250;-77
2023/05/27 04:36:08;;;;;;;9.37;3.67;;;;;;;8.53;100.00;103155.25;5073747;28;20570;-77
2023/05/27 04:38:33;;;;;;;13.30;4.83;;;;;;;9.72;100.00;103324.50;5074513;28;21347;-77
2023/05/27 04:41:00;;;;;;;13.80;4.43;;;;;;;7.46;100.00;102941.38;5071168;28;20527;-77
2023/05/27 04:43:29;;;;;;;11.13;3.67;;;;;;;8.98;100.00;103169.25;5057595;28;20748;-77
2023/05/27 04:45:56;;;;;;;13.80;4.17;;;;;;;7.89;100.00;102993.03;5052190;28;20436;-77
2023/05/27 04:48:23;;;;;;;8.60;3.10;;;;;;;8.99;100.00;103159.38;5053471;28;20456;-77
2023/05/27 04:50:48;;;;;;;10.33;3.50;;;;;;;7.94;100.00;102972.13;5052395;28;20939;-77
2023/05/27 04:53:16;;;;;;;10.13;3.40;;;;;;;9.49;100.00;103205.06;5056761;28;20502;-77
2023/05/27 04:55:42;;;;;;;8.37;3.27;;;;;;;7.67;100.00;102945.91;5048795;28;20195;-77
2023/05/27 04:58:07;;;;;;;9.63;3.30;;;;;;;8.14;100.00;102981.97;5066234;28;20445;-78
2023/05/27 05:00:38;;;;;;;14.17;3.80;;;;;;;7.84;100.00;102940.00;5073695;28;20938;-77
2023/05/27 05:03:05;;;;;;;14.60;3.40;;;;;;;10.35;100.00;103361.06;5068672;28;20371;-77
2023/05/27 05:05:31;;;;;;;10.13;3.60;;;;;;;9.50;100.00;103182.63;5052594;28;20444;-77
2023/05/27 05:07:57;;;;;;;11.50;4.30;;;;;;;8.18;100.00;102944.28;5074214;28;20526;-78
2023/05/27 05:10:23;;;;;;;9.00;3.90;;;;;;;9.18;100.00;103089.88;5056626;28;20888;-77
2023/05/27 05:12:49;;;;;;;11.00;4.03;;;;;;;9.73;100.00;103148.44;5056001;28;20447;-77
2023/05/27 05:15:14;;;;;;;12.80;4.50;;;;;;;8.98;100.00;103011.31;5074341;28;20233;-77
2023/05/27 05:17:40;;;;;;;11.67;3.40;;;;;;;9.96;100.00;103182.09;5049822;28;20198;-77
2023/05/27 05:20:06;;;;;;;10.57;3.97;;;;;;;8.49;100.00;102916.63;5073859;28;20198;-77
2023/05/27 05:22:32;;;;;;;9.67;2.97;;;;;;;8.63;100.00;102936.81;5052616;28;20633;-79
2023/05/27 05:24:57;;;;;;;9.03;3.30;;;;;;;8.69;100.00;102971.06;5075360;28;20467;-78
2023/05/27 05:27:24;;;;;;;14.13;4.30;;;;;;;11.02;100.00;103332.66;5052866;28;20274;-77
2023/05/27 05:29:50;;;;;;;17.57;4.87;;;;;;;8.45;100.00;102885.78;5053565;28;20526;-78
2023/05/27 05:32:15;;;;;;;13.90;4.63;;;;;;;9.36;100.00;103044.56;5058223;28;20500;-78
2023/05/27 05:34:41;;;;;;;8.50;3.50;;;;;;;9.68;100.00;103099.75;5068833;28;20236;-78
2023/05/27 05:37:06;;;;;;;12.03;4.40;;;;;;;8.87;100.00;102973.94;5053196;28;20187;-77
2023/05/27 05:39:32;;;;;;;13.40;4.33;;;;;;;9.02;100.00;102969.91;5051093;28;20259;-78
2023/05/27 05:41:58;;;;;;;11.00;3.87;;;;;;;9.81;100.00;103080.78;5070918;28;20186;-78
2023/05/27 05:44:25;;;;;;;10.63;3.70;;;;;;;10.36;100.00;103162.41;5053071;28;21983;-77
2023/05/27 05:46:51;;;;;;;12.63;4.03;;;;;;;10.18;100.00;103142.59;5063506;28;20187;-77
2023/05/27 05:49:18;;;;;;;9.23;4.03;;;;;;;9.77;100.00;103090.91;5067399;28;20471;-78
2023/05/27 05:51:43;;;;;;;12.30;4.07;;;;;;;9.44;100.00;103079.53;5050733;28;20297;-78
2023/05/27 05:54:09;;;;;;;14.20;4.40;;;;;;;10.09;100.00;103187.19;5055153;28;21327;-78
2023/05/27 05:56:34;;;;;;;13.87;4.87;;;;;;;8.57;100.00;102915.97;5056609;28;20194;-77
2023/05/27 05:59:00;;;;;;;14.67;4.17;;;;;;;11.13;100.00;103363.91;5073148;28;20562;-78
2023/05/27 06:01:29;;;;;;;15.30;4.10;;;;;;;9.02;100.00;103017.25;5056285;28;20194;-78
2023/05/27 06:03:56;;;;;;;10.53;4.17;;;;;;;9.30;100.00;103015.66;5056110;28;20218;-78
2023/05/27 06:06:22;;;;;;;10.63;4.20;;;;;;;9.54;100.00;103044.72;5058865;28;20456;-78
2023/05/27 06:08:47;;;;;;;13.77;4.50;;;;;;;9.45;100.00;102973.25;5074286;28;20445;-78
2023/05/27 06:11:13;;;;;;;14.23;4.40;;;;;;;10.58;100.00;103187.25;5075984;28;20468;-78
2023/05/27 06:13:39;;;;;;;13.00;4.00;;;;;;;9.87;100.00;103043.53;5058183;28;20268;-78
2023/05/27 06:16:05;;;;;;;15.23;4.30;;;;;;;9.51;100.00;102973.50;5077067;28;21131;-78
2023/05/27 06:18:30;;;;;;;10.80;4.07;;;;;;;9.32;100.00;102895.00;5079295;28;20439;-78
2023/05/27 06:20:56;;;;;;;11.37;4.10;;;;;;;10.30;100.00;103097.72;5081983;28;20600;-78
2023/05/27 06:23:21;;;;;;;13.17;4.20;;;;;;;9.32;100.00;102884.28;5083007;28;20720;-78
2023/05/27 06:25:47;;;;;;;18.50;5.13;;;;;;;9.74;100.00;102941.09;5081994;28;20183;-78
2023/05/27 06:28:12;;;;;;;17.87;5.03;;;;;;;9.15;100.00;102853.69;5063052;28;20244;-78
2023/05/27 06:30:38;;;;;;;12.10;4.53;;;;;;;9.93;100.00;102989.34;5079159;28;20221;-77
2023/05/27 06:33:04;;;;;;;11.67;4.00;;;;;;;10.04;100.00;102982.13;5061714;28;20218;-78
2023/05/27 06:35:30;;;;;;;12.33;4.10;;;;;;;9.78;100.00;102963.09;5081734;28;20431;-77
2023/05/27 06:37:55;;;;;;;8.37;3.40;;;;;;;10.36;100.00;103032.81;5066773;28;20451;-78
2023/05/27 06:40:20;;;;;;;11.80;4.10;;;;;;;11.46;100.00;103217.53;5068203;28;20195;-79
2023/05/27 06:42:46;;;;;;;11.93;3.83;;;;;;;11.21;100.00;103136.56;5054555;28;20178;-78
2023/05/27 06:45:12;;;;;;;11.73;4.13;;;;;;;9.89;100.00;102920.06;5074163;28;20235;-77
2023/05/27 06:47:38;;;;;;;11.20;4.00;;;;;;;10.52;100.00;103056.34;5053663;28;20628;-78
2023/05/27 06:50:04;;;;;;;12.80;5.53;;;;;;;9.58;100.00;102866.66;5054331;28;20188;-78
2023/05/27 06:52:30;;;;;;;9.33;4.07;;;;;;;10.21;100.00;102940.31;5067173;28;20834;-77
2023/05/27 06:54:55;;;;;;;11.27;3.80;;;;;;;10.02;100.00;102925.97;5071176;28;20260;-78
2023/05/27 06:57:21;;;;;;;11.90;3.67;;;;;;;10.41;100.00;102976.84;5057471;28;20444;-78
2023/05/27 06:59:46;;;;;;;10.13;3.67;;;;;;;10.06;100.00;102935.41;5076400;28;20190;-78
2023/05/27 07:02:11;;;;;;;11.30;3.93;;;;;;;11.43;100.00;103121.91;5073772;28;20183;-78
2023/05/27 07:04:37;;;;;;;12.10;4.10;;;;;;;10.16;100.00;102920.16;5056165;28;20212;-78
2023/05/27 07:07:03;;;;;;;12.67;3.60;;;;;;;10.70;100.00;102989.34;5060265;28;20220;-78
2023/05/27 07:09:28;;;;;;;10.60;4.00;;;;;;;11.15;100.00;103036.94;5078498;28;20194;-86
2023/05/27 07:11:54;;;;;;;11.60;4.50;;;;;;;11.04;100.00;103038.78;5073429;28;20956;-85
2023/05/27 07:14:19;;;;;;;11.53;3.87;;;;;;;12.25;100.00;103216.16;5040567;28;20198;-85
2023/05/27 07:16:45;;;;;;;12.67;3.50;;;;;;;12.28;100.00;103197.88;5057811;28;20198;-86
2023/05/27 07:19:11;;;;;;;12.27;3.80;;;;;;;10.76;100.00;102976.19;5073710;28;20529;-83
2023/05/27 07:21:39;;;;;;;12.47;3.83;;;;;;;10.34;100.00;102863.94;5059744;28;20256;-84
2023/05/27 07:24:05;;;;;;;10.27;3.60;;;;;;;11.43;100.00;103089.66;5059977;28;20248;-87
2023/05/27 07:26:31;;;;;;;10.33;3.60;;;;;;;9.83;100.00;102800.03;5053876;28;20472;-86
2023/05/27 07:29:00;;;;;;;8.27;3.30;;;;;;;11.47;100.00;103050.72;5050697;28;20194;-87
2023/05/27 07:31:27;;;;;;;9.67;4.30;;;;;;;11.15;100.00;102959.88;5056143;28;20559;-85
2023/05/27 07:33:53;;;;;;;10.10;3.80;;;;;;;11.63;100.00;103068.03;5061372;28;20457;-85
2023/05/27 07:36:19;;;;;;;9.87;3.37;;;;;;;12.25;100.00;103143.50;5060859;28;20461;-87
2023/05/27 07:38:45;;;;;;;10.67;3.80;;;;;;;11.04;100.00;102971.66;5060243;28;20484;-83
2023/05/27 07:41:11;;;;;;;15.07;4.90;;;;;;;10.98;100.00;102939.19;5056776;28;20178;-84
2023/05/27 07:43:36;;;;;;;11.33;3.90;;;;;;;10.55;100.00;102823.44;5057539;28;20616;-83
2023/05/27 07:46:02;;;;;;;9.63;3.33;;;;;;;11.86;100.00;103038.88;5073220;28;20439;-83
2023/05/27 07:48:28;;;;;;;13.00;4.40;;;;;;;10.45;100.00;102808.41;5075100;28;20197;-85
2023/05/27 07:50:54;;;;;;;11.20;3.90;;;;;;;12.76;100.00;103150.84;5059751;28;20290;-88
2023/05/27 07:53:20;;;;;;;11.70;3.67;;;;;;;10.71;100.00;102803.16;5059251;28;20460;-84
2023/05/27 07:55:45;;;;;;;13.00;4.13;;;;;;;12.14;100.00;103026.19;5058705;28;20191;-87
2023/05/27 07:58:11;;;;;;;8.93;3.67;;;;;;;11.88;100.00;103002.78;5052117;28;20452;-87
2023/05/27 08:00:36;;;;;;;10.37;3.60;;;;;;;11.97;100.00;102988.41;5054856;28;20190;-86
2023/05/27 08:03:02;;;;;;;10.40;4.10;;;;;;;11.73;100.00;102959.44;5052644;28;20218;-84
2023/05/27 08:05:27;;;;;;;9.80;3.97;;;;;;;11.61;100.00;102927.59;5057213;28;20187;-84
2023/05/27 08:07:55;;;;;;;13.27;4.23;;;;;;;11.48;100.00;102891.16;5069626;28;20225;-84
2023/05/27 08:10:21;;;;;;;8.70;4.30;;;;;;;12.07;100.00;102957.91;5077953;28;20211;-87
2023/05/27 08:12:46;;;;;;;12.03;4.33;;;;;;;12.87;100.00;103120.09;5050583;28;20544;-86
2023/05/27 08:15:12;;;;;;;10.97;4.13;;;;;;;11.64;100.00;102879.72;5055280;28;20192;-87
2023/05/27 08:17:37;;;;;;;10.57;4.30;;;;;;;11.73;100.00;102913.72;5061055;28;20186;-86
2023/05/27 08:20:04;;;;;;;12.90;3.67;;;;;;;12.64;100.00;103052.47;5058569;28;20273;-83
2023/05/27 08:22:29;;;;;;;12.63;4.47;;;;;;;11.84;100.00;102893.00;5058230;28;20202;-82
2023/05/27 08:24:55;;;;;;;10.37;4.13;;;;;;;11.04;100.00;102734.50;5059981;28;20479;-77
2023/05/27 08:27:21;;;;;;;10.50;3.57;;;;;;;11.72;100.00;102844.00;5075309;28;20740;-82
2023/05/27 08:29:46;;;;;;;11.07;3.77;;;;;;;12.07;100.00;102855.69;5055514;28;20818;-82
2023/05/27 08:32:12;;;;;;;12.00;3.60;;;;;;;11.63;100.00;102775.91;5057953;28;20493;-83
2023/05/27 08:34:38;;;;;;;10.27;3.77;;;;;;;13.65;100.00;103090.34;5056659;28;20774;-82
2023/05/27 08:37:05;;;;;;;14.13;4.20;;;;;;;12.86;100.00;102984.59;5056202;28;20606;-82
2023/05/27 08:39:31;;;;;;;10.27;3.90;;;;;;;11.08;100.00;102680.34;5073442;28;20445;-82
2023/05/27 08:42:00;;;;;;;9.53;3.50;;;;;;;11.62;100.00;102762.63;5068935;28;20921;-83
2023/05/27 08:44:25;;;;;;;13.67;3.80;;;;;;;12.69;100.00;102917.38;5070550;28;20616;-83
2023/05/27 08:46:51;;;;;;;14.47;4.60;;;;;;;11.97;100.00;102812.75;5060911;28;21063;-80
2023/05/27 08:49:17;;;;;;;20.20;5.57;;;;;;;12.23;100.00;102865.69;5080144;28;21001;-82
2023/05/27 08:51:45;;;;;;;10.47;3.87;;;;;;;12.24;100.00;102813.53;5077428;28;20201;-82
2023/05/27 08:54:10;;;;;;;10.73;3.37;;;;;;;13.78;100.00;103041.34;5061751;28;20459;-83
2023/05/27 08:56:39;;;;;;;12.80;3.73;;;;;;;13.74;100.00;103039.97;5063244;28;20434;-78
2023/05/27 08:59:04;;;;;;;11.80;4.07;;;;;;;12.05;100.00;102733.97;5077221;28;20273;-81
2023/05/27 09:01:32;;;;;;;10.30;4.00;;;;;;;12.75;100.00;102831.38;5079477;28;20544;-79
2023/05/27 09:03:58;;;;;;;18.07;4.73;;;;;;;12.27;100.00;102811.41;5055631;28;20210;-80
2023/05/27 09:06:24;;;;;;;11.07;4.13;;;;;;;12.97;100.00;102901.81;5062443;28;20922;-82
2023/05/27 09:08:50;;;;;;;10.83;3.93;;;;;;;14.05;100.00;103050.97;5060559;28;20530;-81
2023/05/27 09:11:23;;;;;;;11.77;3.77;;;;;;;12.77;100.00;102833.94;5071073;28;20783;-82
2023/05/27 09:13:48;;;;;;;11.60;3.80;;;;;;;13.91;100.00;102994.97;5064438;22;20287;-69
2023/05/27 09:16:14;;;;;;;8.20;3.30;;;;;;;14.06;100.00;103001.41;5064639;28;20416;-69
2023/05/27 09:18:41;;;;;;;8.47;3.53;;;;;;;13.99;100.00;102936.47;5061107;28;20179;-69
2023/05/27 09:21:07;;;;;;;8.17;2.97;;;;;;;14.28;100.00;102997.16;5059479;28;20179;-69
2023/05/27 09:23:37;;;;;;;11.53;4.77;;;;;;;13.83;100.00;102954.50;5056109;28;20483;-69
2023/05/27 09:26:11;;;;;;;13.63;4.20;;;;;;;14.27;100.00;103005.44;5055900;28;20207;-69
2023/05/27 09:28:38;;;;;;;11.37;3.77;;;;;;;14.36;100.00;102993.59;5036606;28;20441;-69
2023/05/27 09:31:05;;;;;;;9.20;3.30;;;;;;;14.29;100.00;102961.06;5038970;28;20472;-68
2023/05/27 09:33:32;;;;;;;11.13;3.63;;;;;;;14.63;100.00;102981.59;5056938;28;20461;-69
2023/05/27 09:35:59;;;;;;;9.87;3.57;;;;;;;14.51;100.00;102970.28;5035064;28;20959;-68
2023/05/27 09:38:27;;;;;;;9.63;3.67;;;;;;;13.90;100.00;102897.03;5051630;28;20448;-69
2023/05/27 09:40:53;;;;;;;11.47;4.13;;;;;;;14.30;100.00;102949.25;5054651;28;20450;-69
2023/05/27 09:43:19;;;;;;;8.43;3.60;;;;;;;14.38;100.00;102951.09;5040025;28;20440;-69
2023/05/27 09:45:45;;;;;;;8.97;3.53;;;;;;;14.67;100.00;102967.56;5057281;28;20188;-69
2023/05/27 09:48:13;;;;;;;11.10;3.83;;;;;;;14.70;100.00;102947.47;5058194;28;20974;-69
2023/05/27 09:50:40;;;;;;;11.80;3.60;;;;;;;14.83;100.00;102955.00;5056286;28;20203;-69
2023/05/27 09:53:06;;;;;;;14.90;4.10;;;;;;;14.95;100.00;102959.00;5040766;28;20504;-69
2023/05/27 09:55:33;;;;;;;9.17;3.60;;;;;;;14.88;100.00;102949.94;5054955;28;20445;-69
2023/05/27 09:57:58;;;;;;;11.40;4.20;;;;;;;14.78;100.00;102904.22;5059868;28;20433;-69
2023/05/27 10:00:26;;;;;;;12.93;4.30;;;;;;;14.99;100.00;102938.72;5058320;28;20487;-69
2023/05/27 10:02:53;;;;;;;10.23;4.07;;;;;;;14.94;100.00;102924.06;5056541;28;20218;-69
2023/05/27 10:05:20;;;;;;;10.83;4.10;;;;;;;14.81;100.00;102893.06;5056810;28;21389;-69
2023/05/27 10:07:46;;;;;;;10.20;3.23;;;;;;;14.94;100.00;102902.44;5059055;28;20444;-69
2023/05/27 10:10:17;;;;;;;8.53;3.63;;;;;;;14.89;100.00;102857.03;5059920;28;20433;-69
2023/05/27 10:12:44;;;;;;;10.47;4.23;;;;;;;14.65;100.00;102855.31;5050300;28;20219;-69
2023/05/27 10:15:20;;;;;;;11.53;4.00;;;;;;;14.94;100.00;102908.69;5055455;28;20964;-69
2023/05/27 10:17:53;;;;;;;11.53;4.20;;;;;;;15.60;100.00;102909.09;5054611;28;20445;-69
2023/05/27 10:20:28;;;;;;;9.90;3.63;;;;;;;15.44;100.00;102914.59;5055802;28;20467;-70
2023/05/27 10:22:53;;;;;;;12.70;4.20;;;;;;;14.82;100.00;102820.94;5040442;28;20468;-69
2023/05/27 10:25:18;;;;;;;11.10;3.90;;;;;;;15.34;100.00;102885.13;5056469;28;20479;-69
2023/05/27 10:27:48;;;;;;;8.73;3.67;;;;;;;15.56;100.00;102894.22;5042435;28;20552;-70
2023/05/27 10:30:15;;;;;;;12.50;5.17;;;;;;;15.09;100.00;102825.81;5055322;28;20215;-70
2023/05/27 10:32:58;;;;;;;13.10;4.50;;;;;;;15.59;100.00;102853.28;5060228;28;20473;-70
2023/05/27 10:35:27;;;;;;;10.60;3.33;;;;;;;15.59;100.00;102856.00;5059371;28;20464;-70
2023/05/27 10:37:53;;;;;;;9.50;3.83;;;;;;;15.49;100.00;102828.38;5042319;28;20521;-70
2023/05/27 10:40:25;;;;;;;8.77;3.43;;;;;;;15.25;100.00;102813.22;5041664;28;20568;-70
2023/05/27 10:43:02;;;;;;;16.40;3.90;;;;;;;15.73;100.00;102868.75;5039790;28;20351;-70
2023/05/27 10:45:34;;;;;;;7.83;3.70;;;;;;;15.14;100.00;102790.97;5036397;28;20535;-69
2023/05/27 10:48:00;;;;;;;11.00;4.30;;;;;;;15.79;100.00;102854.50;5036316;28;20440;-70
2023/05/27 10:50:35;;;;;;;24.13;5.47;;;;;;;15.78;100.00;102803.25;5042920;28;20441;-69
2023/05/27 10:53:03;;;;;;;16.40;5.17;;;;;;;15.78;100.00;102841.97;5054699;28;20983;-68
2023/05/27 10:55:31;;;;;;;12.37;4.80;;;;;;;15.99;100.00;102846.66;5039744;28;20951;-71
2023/05/27 10:57:57;;;;;;;18.07;4.53;;;;;;;15.75;100.00;102779.28;5061396;28;20502;-71
2023/05/27 11:00:27;;;;;;;7.83;3.60;;;;;;;15.94;100.00;102819.31;5041215;28;20469;-71
2023/05/27 11:02:53;;;;;;;9.70;3.73;;;;;;;15.77;100.00;102779.94;5060032;28;20539;-70
2023/05/27 11:05:20;;;;;;;10.60;4.00;;;;;;;15.91;100.00;102760.16;5042983;28;20968;-71
2023/05/27 11:07:45;;;;;;;9.67;3.90;;;;;;;16.54;100.00;102778.63;5062595;28;20445;-72
2023/05/27 11:10:10;;;;;;;10.30;3.53;;;;;;;16.07;100.00;102755.56;5059060;28;20821;-71
2023/05/27 11:12:36;;;;;;;11.77;3.87;;;;;;;16.23;100.00;102788.69;5057575;28;20217;-71